Time;durP1;ratioP1;P1;durP2;ratioP2;P2;SDS_P1;SDS_P2;PMS_P1;PMS_P2;Temp;Humidity;BMP_temperature;BMP_pressure;BME280_temperature;BME280_humidity;BME280_pressure;Samples;Min_cycle;Max_cycle;Signal;HPM_P1;HPM_P2
2022/02/15 00:00:52;;;;;;;6.78;4.18;;;;;;;5.57;94.76;100445.47;2011694;29;20033;-60
2022/02/15 00:01:52;;;;;;;9.52;4.35;;;;;;;5.57;94.74;100452.41;2011665;29;20033;-60
2022/02/15 00:02:52;;;;;;;10.90;4.57;;;;;;;5.60;94.05;100453.16;2011675;29;20503;-60
2022/02/15 00:03:52;;;;;;;8.30;4.20;;;;;;;5.56;94.47;100451.53;2011647;29;20394;-61
2022/02/15 00:04:53;;;;;;;7.73;4.40;;;;;;;5.52;95.05;100462.88;2011661;29;20085;-61
2022/02/15 00:05:53;;;;;;;10.47;4.43;;;;;;;5.50;95.16;100449.97;2011629;29;20037;-61
2022/02/15 00:06:53;;;;;;;10.77;4.90;;;;;;;5.50;94.85;100443.94;2011589;29;20064;-60
2022/02/15 00:07:54;;;;;;;7.03;3.20;;;;;;;5.57;94.20;100455.00;2011612;29;20395;-60
2022/02/15 00:08:54;;;;;;;9.37;4.63;;;;;;;5.61;94.43;100451.41;2011670;29;20452;-62
2022/02/15 00:09:54;;;;;;;4.37;2.70;;;;;;;5.64;93.44;100447.00;2018647;29;20444;-60
2022/02/15 00:10:54;;;;;;;6.10;4.80;;;;;;;5.72;93.19;100448.53;2018723;29;20430;-60
2022/02/15 00:11:55;;;;;;;10.47;4.00;;;;;;;5.59;93.45;100448.88;2011636;29;20033;-61
2022/02/15 00:12:55;;;;;;;10.27;4.50;;;;;;;5.49;94.48;100455.19;2018585;29;20510;-61
2022/02/15 00:13:55;;;;;;;8.87;4.13;;;;;;;5.38;94.89;100458.91;2018652;29;20116;-61
2022/02/15 00:14:55;;;;;;;10.40;5.00;;;;;;;5.32;95.09;100453.03;2011620;29;20033;-60
2022/02/15 00:15:56;;;;;;;8.03;4.17;;;;;;;5.27;95.50;100456.59;2011551;29;20059;-61
2022/02/15 00:16:56;;;;;;;7.40;5.07;;;;;;;5.23;95.93;100449.81;2011573;29;20430;-62
2022/02/15 00:17:57;;;;;;;7.50;4.20;;;;;;;5.23;96.30;100459.31;2011463;29;20034;-60
2022/02/15 00:18:57;;;;;;;7.03;4.57;;;;;;;5.19;96.58;100453.38;2011502;29;20117;-61
2022/02/15 00:19:57;;;;;;;7.77;4.77;;;;;;;5.24;95.56;100458.44;2011555;29;20029;-61
2022/02/15 00:20:58;;;;;;;8.33;4.10;;;;;;;5.19;96.62;100445.63;2011560;29;20074;-60
2022/02/15 00:21:58;;;;;;;6.17;4.17;;;;;;;5.18;96.53;100453.41;2011516;29;20022;-60
2022/02/15 00:22:58;;;;;;;10.07;4.70;;;;;;;5.13;96.86;100462.16;2010351;29;20034;-62
2022/02/15 00:23:58;;;;;;;8.10;4.27;;;;;;;5.08;96.84;100456.25;2010957;29;20075;-60
2022/02/15 00:24:59;;;;;;;6.93;4.57;;;;;;;5.04;97.00;100454.63;2011461;29;20045;-61
2022/02/15 00:25:59;;;;;;;9.00;4.50;;;;;;;5.06;97.62;100463.19;2011478;29;20415;-60
2022/02/15 00:26:59;;;;;;;10.90;5.20;;;;;;;5.05;97.39;100463.22;2018451;29;20492;-60
2022/02/15 00:27:59;;;;;;;10.17;5.13;;;;;;;5.02;98.00;100470.19;2018516;29;20044;-61
2022/02/15 00:29:01;;;;;;;7.90;4.37;;;;;;;5.01;97.73;100473.66;2011415;29;20138;-61
2022/02/15 00:30:01;;;;;;;10.90;4.63;;;;;;;5.00;97.93;100473.69;2011402;29;20032;-61
2022/02/15 00:31:02;;;;;;;12.73;5.10;;;;;;;4.98;98.00;100475.47;2011320;29;20502;-61
2022/02/15 00:32:03;;;;;;;9.20;4.67;;;;;;;4.99;98.59;100477.16;2011479;29;20030;-61
2022/02/15 00:33:03;;;;;;;9.52;5.28;;;;;;;5.00;98.01;100473.69;2011386;29;20487;-60
2022/02/15 00:34:03;;;;;;;11.20;5.23;;;;;;;4.98;98.12;100481.50;2011523;29;20041;-61
2022/02/15 00:35:05;;;;;;;7.83;5.03;;;;;;;4.99;98.46;100478.00;2011478;29;20403;-61
2022/02/15 00:36:05;;;;;;;10.35;5.60;;;;;;;5.01;98.42;100490.91;2011421;29;20030;-61
2022/02/15 00:37:06;;;;;;;11.63;4.87;;;;;;;5.03;98.77;100479.63;2011442;29;20444;-61
2022/02/15 00:38:06;;;;;;;11.57;5.17;;;;;;;5.08;98.68;100487.28;2011337;29;20056;-61
2022/02/15 00:39:06;;;;;;;10.00;5.47;;;;;;;5.09;98.67;100473.47;2011378;29;20072;-61
2022/02/15 00:40:08;;;;;;;8.50;5.07;;;;;;;5.08;97.96;100476.09;2011441;29;20405;-61
2022/02/15 00:41:09;;;;;;;10.63;5.00;;;;;;;5.05;98.34;100483.91;2011345;29;20546;-61
2022/02/15 00:42:09;;;;;;;13.30;5.80;;;;;;;5.03;97.91;100483.94;2011438;29;20052;-61
2022/02/15 00:43:09;;;;;;;12.07;5.70;;;;;;;5.01;98.31;100488.31;2011295;29;20068;-60
2022/02/15 00:44:10;;;;;;;7.80;4.97;;;;;;;4.98;98.50;100488.41;2011426;29;20398;-60
2022/02/15 00:45:10;;;;;;;11.57;5.70;;;;;;;4.97;98.47;100489.28;2011341;29;20139;-61
2022/02/15 00:46:10;;;;;;;14.83;5.60;;;;;;;4.93;98.86;100493.66;2011338;29;20029;-61
2022/02/15 00:47:10;;;;;;;9.57;5.47;;;;;;;4.88;99.05;100496.38;2011229;29;20451;-61
2022/02/15 00:48:11;;;;;;;11.17;5.87;;;;;;;4.87;99.25;100484.34;2011368;29;20034;-61
2022/02/15 00:49:11;;;;;;;10.00;5.90;;;;;;;4.86;99.07;100492.97;2011304;29;20060;-61
2022/02/15 00:50:12;;;;;;;13.55;7.18;;;;;;;4.83;98.99;100489.63;2011389;29;20535;-60
2022/02/15 00:51:12;;;;;;;10.73;6.00;;;;;;;4.76;99.33;100494.09;2011321;29;20034;-61
2022/02/15 00:52:12;;;;;;;12.00;5.83;;;;;;;4.72;99.48;100495.06;2011347;29;20392;-62
2022/02/15 00:53:13;;;;;;;16.70;8.03;;;;;;;4.72;100.00;100495.91;2011332;29;20029;-61
2022/02/15 00:54:14;;;;;;;8.15;6.32;;;;;;;4.68;100.00;100493.44;2011359;29;20040;-61
2022/02/15 00:55:15;;;;;;;12.90;5.45;;;;;;;4.65;100.00;100494.34;2011267;29;20033;-61
2022/02/15 00:56:15;;;;;;;9.82;6.97;;;;;;;4.65;100.00;100494.34;2011308;29;20106;-61
2022/02/15 00:57:16;;;;;;;11.30;6.03;;;;;;;4.66;100.00;100495.19;2011334;29;20483;-60
2022/02/15 00:58:16;;;;;;;9.00;5.67;;;;;;;4.61;100.00;100498.75;2011238;29;20447;-61
2022/02/15 00:59:16;;;;;;;11.43;6.13;;;;;;;4.57;100.00;100499.69;2011333;29;20380;-61
2022/02/15 01:00:17;;;;;;;12.20;5.73;;;;;;;4.53;100.00;100498.06;2018359;29;20051;-61
2022/02/15 01:01:17;;;;;;;13.63;6.28;;;;;;;4.48;100.00;100505.91;2018432;29;20036;-61
2022/02/15 01:02:18;;;;;;;10.50;5.73;;;;;;;4.44;100.00;100504.28;2011390;29;20056;-61
2022/02/15 01:03:18;;;;;;;9.90;6.40;;;;;;;4.40;100.00;100501.78;2011292;29;20067;-60
2022/02/15 01:04:18;;;;;;;10.33;6.13;;;;;;;4.33;100.00;100501.94;2011323;29;20030;-61
2022/02/15 01:05:18;;;;;;;15.03;6.83;;;;;;;4.28;100.00;100511.53;2011278;29;20033;-61
2022/02/15 01:06:19;;;;;;;13.53;6.57;;;;;;;4.29;100.00;100507.19;2011345;29;20112;-61
2022/02/15 01:07:19;;;;;;;10.98;5.72;;;;;;;4.28;100.00;100511.53;2010512;29;20030;-61
2022/02/15 01:08:19;;;;;;;12.73;6.40;;;;;;;4.30;100.00;100502.00;2010678;29;20029;-61
2022/02/15 01:09:20;;;;;;;12.43;6.03;;;;;;;4.34;100.00;100508.81;2011225;29;20049;-61
2022/02/15 01:10:20;;;;;;;11.67;5.63;;;;;;;4.39;100.00;100513.88;2011209;29;20037;-61
2022/02/15 01:11:20;;;;;;;12.10;6.10;;;;;;;4.43;100.00;100504.31;2011143;29;20030;-61
2022/02/15 01:12:21;;;;;;;10.83;6.40;;;;;;;4.46;100.00;100514.59;2011198;29;20041;-60
2022/02/15 01:13:21;;;;;;;14.30;6.60;;;;;;;4.46;100.00;100512.00;2011137;29;20108;-60
2022/02/15 01:14:21;;;;;;;11.40;5.90;;;;;;;4.45;100.00;100520.66;2011226;29;20030;-60
2022/02/15 01:15:22;;;;;;;10.87;5.73;;;;;;;4.47;100.00;100513.69;2011109;29;20047;-60
2022/02/15 01:16:22;;;;;;;9.03;5.40;;;;;;;4.49;100.00;100509.34;2011187;29;20037;-60
2022/02/15 01:17:22;;;;;;;10.77;6.37;;;;;;;4.49;100.00;100511.94;2011156;29;20534;-61
2022/02/15 01:18:26;;;;;;;11.17;5.70;;;;;;;4.50;100.00;100516.22;2011078;29;20029;-61
2022/02/15 01:19:26;;;;;;;9.73;5.28;;;;;;;4.51;100.00;100523.09;2011048;29;20049;-60
2022/02/15 01:20:26;;;;;;;12.13;7.47;;;;;;;4.52;100.00;100522.22;2011113;29;20025;-60
2022/02/15 01:21:26;;;;;;;12.47;5.93;;;;;;;4.53;100.00;100513.56;2011187;29;20034;-59
2022/02/15 01:22:27;;;;;;;10.23;6.00;;;;;;;4.54;100.00;100522.16;2011132;29;20017;-61
2022/02/15 01:23:27;;;;;;;16.20;7.03;;;;;;;4.53;100.00;100510.13;2011071;29;20527;-61
2022/02/15 01:24:27;;;;;;;10.90;5.90;;;;;;;4.55;100.00;100518.72;2011142;29;20047;-61
2022/02/15 01:25:28;;;;;;;6.83;5.73;;;;;;;4.56;100.00;100523.84;2011133;29;20498;-61
2022/02/15 01:26:28;;;;;;;8.65;6.43;;;;;;;4.56;100.00;100521.25;2018114;29;20145;-61
2022/02/15 01:27:29;;;;;;;10.47;6.10;;;;;;;4.59;100.00;100521.16;2018119;29;20081;-61
2022/02/15 01:28:30;;;;;;;11.33;5.77;;;;;;;4.61;100.00;100518.56;2011250;29;20037;-61
2022/02/15 01:29:30;;;;;;;;;;;;;;;4.64;100.00;100519.34;2011481;29;20029;-61
2022/02/15 01:30:30;;;;;;;19.90;6.50;;;;;;;4.67;100.00;100520.16;2011079;29;20392;-61
2022/02/15 01:31:31;;;;;;;11.67;6.13;;;;;;;4.68;100.00;100527.03;2011065;29;20364;-61
2022/02/15 01:32:31;;;;;;;9.10;5.27;;;;;;;4.70;100.00;100523.53;2010977;29;20055;-61
2022/02/15 01:33:31;;;;;;;11.63;5.77;;;;;;;4.72;100.00;100531.25;2011035;29;20025;-62
2022/02/15 01:34:32;;;;;;;11.87;6.30;;;;;;;4.73;100.00;100527.78;2010262;29;20037;-61
2022/02/15 01:35:32;;;;;;;8.80;6.57;;;;;;;4.74;100.00;100527.75;2011085;29;20029;-62
2022/02/15 01:36:32;;;;;;;10.10;5.93;;;;;;;4.74;100.00;100529.47;2011084;29;20032;-61
2022/02/15 01:37:32;;;;;;;8.63;4.70;;;;;;;4.73;100.00;100528.59;2011046;29;20037;-61
2022/02/15 01:38:33;;;;;;;11.40;6.10;;;;;;;4.76;100.00;100532.88;2010985;29;20057;-61
2022/02/15 01:39:33;;;;;;;7.63;5.50;;;;;;;4.76;100.00;100533.72;2011012;29;20037;-60
2022/02/15 01:40:34;;;;;;;14.43;5.93;;;;;;;4.77;100.00;100539.75;2011070;29;20029;-61
2022/02/15 01:41:34;;;;;;;13.10;5.07;;;;;;;4.79;100.00;100543.13;2011038;29;20416;-60
2022/02/15 01:42:35;;;;;;;10.30;5.50;;;;;;;4.81;100.00;100533.63;2011023;29;20017;-61
2022/02/15 01:43:44;;;;;;;13.43;6.03;;;;;;;4.83;100.00;100539.59;2010975;29;20451;-60
2022/02/15 01:44:45;;;;;;;14.60;6.20;;;;;;;4.83;100.00;100537.00;2010948;29;20025;-61
2022/02/15 01:45:45;;;;;;;11.57;6.25;;;;;;;4.84;100.00;100538.72;2010902;29;20112;-61
2022/02/15 01:46:45;;;;;;;13.03;6.67;;;;;;;4.85;100.00;100535.25;2010832;29;20029;-61
2022/02/15 01:47:47;;;;;;;12.87;6.20;;;;;;;4.86;100.00;100542.09;2010937;29;20033;-61
2022/02/15 01:48:47;;;;;;;;;;;;;;;4.90;100.00;100540.31;2011322;29;20042;-61
2022/02/15 01:49:47;;;;;;;12.10;6.00;;;;;;;4.89;100.00;100544.63;2010893;29;19912;-60
2022/02/15 01:50:47;;;;;;;12.07;5.90;;;;;;;4.90;100.00;100548.91;2010949;29;20037;-61
2022/02/15 01:51:49;;;;;;;11.80;6.00;;;;;;;4.90;100.00;100546.31;2010912;29;20480;-61
2022/02/15 01:52:49;;;;;;;13.73;6.40;;;;;;;4.89;100.00;100554.97;2017957;29;20042;-61
2022/02/15 01:53:49;;;;;;;11.83;6.50;;;;;;;4.89;100.00;100547.22;2018000;29;20036;-61
2022/02/15 01:54:51;;;;;;;11.13;6.27;;;;;;;4.89;100.00;100544.63;2011032;29;20482;-61
2022/02/15 01:55:52;;;;;;;13.25;7.07;;;;;;;4.89;100.00;100549.81;2010935;29;20476;-61
2022/02/15 01:56:53;;;;;;;13.90;7.10;;;;;;;4.89;100.00;100544.63;2010890;29;20041;-61
2022/02/15 01:57:53;;;;;;;11.30;7.20;;;;;;;4.89;100.00;100544.63;2010947;29;20022;-60
2022/02/15 01:58:55;;;;;;;11.37;6.17;;;;;;;4.92;100.00;100548.03;2010798;29;20033;-61
2022/02/15 01:59:57;;;;;;;12.73;6.65;;;;;;;4.90;100.00;100546.31;2010863;29;20520;-62
2022/02/15 02:00:57;;;;;;;14.10;6.40;;;;;;;4.90;100.00;100548.06;2010840;29;20045;-61
2022/02/15 02:01:57;;;;;;;12.80;6.27;;;;;;;4.91;100.00;100547.19;2010854;29;20064;-61
2022/02/15 02:02:58;;;;;;;13.90;6.57;;;;;;;4.90;100.00;100545.50;2010875;29;20036;-61
2022/02/15 02:03:58;;;;;;;14.87;6.37;;;;;;;4.89;100.00;100539.47;2017879;29;20510;-62
2022/02/15 02:06:17;;;;;;;19.42;7.05;;;;;;;4.86;100.00;100547.28;2010850;29;20037;-63
2022/02/15 02:07:17;;;;;;;19.97;6.37;;;;;;;4.85;100.00;100543.00;2010849;29;20021;-60
2022/02/15 02:08:25;;;;;;;16.10;7.10;;;;;;;4.85;100.00;100542.13;2010765;29;20021;-61
2022/02/15 02:09:25;;;;;;;9.00;5.35;;;;;;;4.84;100.00;100546.47;2010770;29;20120;-61
2022/02/15 02:10:25;;;;;;;11.87;6.57;;;;;;;4.82;100.00;100548.25;2010851;29;20033;-62
2022/02/15 02:11:26;;;;;;;12.67;6.53;;;;;;;4.82;100.00;100542.25;2010833;29;20037;-61
2022/02/15 02:12:26;;;;;;;12.07;5.80;;;;;;;4.81;100.00;100554.31;2010825;29;20725;-61
2022/02/15 02:13:27;;;;;;;9.37;5.97;;;;;;;4.82;100.00;100548.25;2010811;29;20116;-61
2022/02/15 02:14:27;;;;;;;13.60;6.57;;;;;;;4.81;100.00;100551.72;2010806;29;20060;-61
2022/02/15 02:15:27;;;;;;;14.20;6.33;;;;;;;4.80;100.00;100554.34;2010772;29;20038;-61
2022/02/15 02:16:32;;;;;;;9.67;5.57;;;;;;;4.81;100.00;100556.03;2010804;29;20478;-60
2022/02/15 02:17:32;;;;;;;8.45;5.47;;;;;;;4.79;100.00;100553.47;2010771;29;20025;-60
2022/02/15 02:18:33;;;;;;;11.52;6.43;;;;;;;4.79;100.00;100560.41;2010707;29;20072;-60
2022/02/15 02:19:33;;;;;;;8.57;5.67;;;;;;;4.79;100.00;100553.47;2010727;29;20025;-61
2022/02/15 02:20:33;;;;;;;14.23;7.00;;;;;;;4.79;100.00;100553.47;2010710;29;20057;-61
2022/02/15 02:21:38;;;;;;;9.33;6.13;;;;;;;4.80;100.00;100555.19;2010744;29;20126;-61
2022/02/15 02:22:39;;;;;;;12.50;6.97;;;;;;;4.82;100.00;100558.59;2010757;29;20022;-60
2022/02/15 02:23:40;;;;;;;12.50;6.55;;;;;;;4.82;100.00;100558.59;2010764;29;20021;-61
2022/02/15 02:24:40;;;;;;;11.38;6.47;;;;;;;4.82;100.00;100552.56;2017748;29;20066;-61
2022/02/15 02:25:41;;;;;;;11.43;6.40;;;;;;;4.81;100.00;100549.13;2017758;29;20558;-60
2022/02/15 02:26:41;;;;;;;15.13;8.02;;;;;;;4.81;100.00;100551.72;2010732;29;20108;-61
2022/02/15 02:27:42;;;;;;;13.73;6.73;;;;;;;4.80;100.00;100552.59;2017593;29;20420;-61
2022/02/15 02:28:43;;;;;;;14.48;6.60;;;;;;;4.79;100.00;100563.81;2017744;29;20040;-61
2022/02/15 02:29:44;;;;;;;9.55;6.68;;;;;;;4.80;100.00;100555.19;2010695;29;20109;-62
2022/02/15 02:30:44;;;;;;;13.13;6.68;;;;;;;4.81;100.00;100556.88;2010749;29;20025;-62
2022/02/15 02:31:45;;;;;;;10.55;6.10;;;;;;;4.81;100.00;100567.22;2010595;29;20022;-61
2022/02/15 02:32:47;;;;;;;15.90;7.10;;;;;;;4.81;100.00;100559.47;2010580;29;20414;-60
2022/02/15 02:33:47;;;;;;;12.73;6.03;;;;;;;4.81;100.00;100561.19;2010638;29;20060;-61
2022/02/15 02:34:47;;;;;;;14.13;6.57;;;;;;;4.81;100.00;100567.22;2010665;29;20029;-61
2022/02/15 02:35:57;;;;;;;13.27;7.70;;;;;;;4.80;100.00;100565.53;2010674;29;20053;-60
2022/02/15 02:36:58;;;;;;;11.40;6.30;;;;;;;4.80;100.00;100564.69;2010624;29;20116;-60
2022/02/15 02:37:58;;;;;;;13.73;6.13;;;;;;;4.79;100.00;100566.41;2010599;29;20475;-61
2022/02/15 02:38:58;;;;;;;15.87;7.00;;;;;;;4.81;100.00;100575.00;2017668;29;20492;-60
2022/02/15 02:40:02;;;;;;;12.20;7.00;;;;;;;4.80;100.00;100565.53;2017726;29;20047;-61
2022/02/15 02:41:03;;;;;;;10.55;6.97;;;;;;;4.80;100.00;100562.94;2010548;29;20112;-61
2022/02/15 02:42:03;;;;;;;11.53;6.53;;;;;;;4.80;100.00;100565.53;2010629;29;20123;-60
2022/02/15 02:43:03;;;;;;;15.25;6.30;;;;;;;4.81;100.00;100567.22;2010588;29;20034;-61
2022/02/15 02:44:04;;;;;;;14.97;6.70;;;;;;;4.81;100.00;100566.38;2010676;29;20030;-62
2022/02/15 02:45:17;;;;;;;12.67;7.07;;;;;;;4.81;100.00;100569.81;2010478;29;20037;-61
2022/02/15 02:46:17;;;;;;;16.88;6.72;;;;;;;4.79;100.00;100573.31;2010436;29;20384;-62
2022/02/15 02:47:18;;;;;;;12.87;7.83;;;;;;;4.79;100.00;100568.16;2010397;29;20148;-61
2022/02/15 02:48:18;;;;;;;10.63;6.80;;;;;;;4.79;100.00;100579.31;2010539;29;20037;-61
2022/02/15 02:49:18;;;;;;;15.53;7.23;;;;;;;4.78;100.00;100572.47;2010573;29;20026;-61
2022/02/15 02:50:20;;;;;;;11.60;7.63;;;;;;;4.76;100.00;100574.25;2009870;29;20057;-61
2022/02/15 02:51:21;;;;;;;16.83;7.07;;;;;;;4.73;100.00;100579.47;2009912;29;20029;-60
2022/02/15 02:52:23;;;;;;;10.70;7.63;;;;;;;4.71;100.00;100571.75;2009853;29;20037;-61
2022/02/15 02:53:23;;;;;;;13.38;7.72;;;;;;;4.70;100.00;100579.53;2009946;29;20053;-61
2022/02/15 02:54:24;;;;;;;10.23;5.73;;;;;;;4.69;100.00;100577.84;2017538;29;20040;-61
2022/02/15 02:55:24;;;;;;;11.88;6.82;;;;;;;4.66;100.00;100578.78;2017590;29;20029;-60
2022/02/15 02:56:24;;;;;;;14.30;6.67;;;;;;;4.64;100.00;100576.22;2010575;29;20033;-61
2022/02/15 02:57:24;;;;;;;12.33;8.73;;;;;;;4.62;100.00;100577.97;2010529;29;20064;-59
2022/02/15 02:58:25;;;;;;;19.03;8.50;;;;;;;4.59;100.00;100578.03;2010511;29;20030;-60
2022/02/15 02:59:25;;;;;;;13.03;7.70;;;;;;;4.57;100.00;100582.41;2017584;29;20040;-61
2022/02/15 03:00:25;;;;;;;13.23;7.87;;;;;;;4.56;100.00;100585.88;2017669;29;20060;-61
2022/02/15 03:01:26;;;;;;;13.63;7.37;;;;;;;4.56;100.00;100588.47;2010586;29;20048;-61
2022/02/15 03:02:26;;;;;;;13.70;7.27;;;;;;;4.54;100.00;100585.03;2010626;29;20422;-61
2022/02/15 03:03:26;;;;;;;11.40;7.80;;;;;;;4.54;100.00;100587.63;2010545;29;20038;-61
2022/02/15 03:04:26;;;;;;;14.63;7.63;;;;;;;4.54;100.00;100585.03;2010549;29;20112;-61
2022/02/15 03:05:27;;;;;;;17.47;8.20;;;;;;;4.54;100.00;100589.34;2010533;29;20119;-61
2022/02/15 03:06:27;;;;;;;14.13;7.03;;;;;;;4.55;100.00;100586.75;2010585;29;20037;-61
2022/02/15 03:07:28;;;;;;;18.90;7.82;;;;;;;4.55;100.00;100586.75;2009920;29;20125;-60
2022/02/15 03:08:28;;;;;;;11.37;8.63;;;;;;;4.54;100.00;100586.78;2010015;29;20017;-60
2022/02/15 03:09:28;;;;;;;11.57;7.27;;;;;;;4.53;100.00;100588.53;2010399;29;20033;-62
2022/02/15 03:10:28;;;;;;;11.63;7.97;;;;;;;4.52;100.00;100592.00;2010502;29;20060;-61
2022/02/15 03:11:29;;;;;;;13.80;7.27;;;;;;;4.51;100.00;100596.31;2017461;29;20025;-61
2022/02/15 03:12:29;;;;;;;18.83;8.38;;;;;;;4.51;100.00;100601.47;2009868;29;20488;-61
2022/02/15 03:13:30;;;;;;;15.80;8.27;;;;;;;4.51;100.00;100595.44;2009906;29;20463;-61
2022/02/15 03:14:30;;;;;;;16.27;8.87;;;;;;;4.50;100.00;100598.91;2010473;29;20101;-60
2022/02/15 03:15:30;;;;;;;12.20;7.55;;;;;;;4.51;100.00;100600.59;2010444;29;20032;-60
2022/02/15 03:16:31;;;;;;;14.07;7.77;;;;;;;4.52;100.00;100602.34;2010475;29;20030;-60
2022/02/15 03:17:31;;;;;;;12.63;8.02;;;;;;;4.54;100.00;100602.28;2010459;29;20089;-60
2022/02/15 03:18:32;;;;;;;11.57;6.90;;;;;;;4.53;100.00;100598.84;2010452;29;20112;-60
2022/02/15 03:19:32;;;;;;;18.57;9.20;;;;;;;4.51;100.00;100601.47;2010502;29;20104;-61
2022/02/15 03:20:32;;;;;;;14.77;8.27;;;;;;;4.51;100.00;100603.19;2010539;29;20280;-61
2022/02/15 03:21:33;;;;;;;13.93;8.13;;;;;;;4.49;100.00;100612.72;2010380;29;20432;-61
2022/02/15 03:22:33;;;;;;;13.50;7.77;;;;;;;4.48;100.00;100601.53;2010530;29;20109;-61
2022/02/15 03:23:33;;;;;;;16.77;8.53;;;;;;;4.48;100.00;100605.88;2010469;29;20036;-61
2022/02/15 03:24:33;;;;;;;11.57;8.23;;;;;;;4.49;100.00;100612.72;2010466;29;20068;-60
2022/02/15 03:25:34;;;;;;;16.65;9.93;;;;;;;4.48;100.00;100606.69;2010448;29;20105;-61
2022/02/15 03:26:35;;;;;;;14.83;8.93;;;;;;;4.48;100.00;100606.69;2017480;29;20081;-61
2022/02/15 03:27:35;;;;;;;14.82;8.45;;;;;;;4.47;100.00;100614.47;2009748;29;20025;-61
2022/02/15 03:28:36;;;;;;;10.93;7.47;;;;;;;4.43;100.00;100618.88;2009868;29;20017;-60
2022/02/15 03:29:36;;;;;;;13.55;7.95;;;;;;;4.42;100.00;100616.31;2010448;29;20112;-60
2022/02/15 03:30:36;;;;;;;11.30;8.50;;;;;;;4.40;100.00;100613.75;2010498;29;20028;-62
2022/02/15 03:31:40;;;;;;;13.73;8.73;;;;;;;4.42;100.00;100613.75;2009839;29;20081;-61
2022/02/15 03:32:42;;;;;;;18.20;8.00;;;;;;;4.40;100.00;100605.16;2009907;29;20073;-61
2022/02/15 03:33:42;;;;;;;;;;;;;;;4.43;100.00;100610.25;2010794;29;20086;-61
2022/02/15 03:34:42;;;;;;;12.70;7.53;;;;;;;4.40;100.00;100615.47;2010563;29;20387;-61
2022/02/15 03:35:43;;;;;;;14.20;7.10;;;;;;;4.36;100.00;100613.00;2010466;29;20387;-61
2022/02/15 03:36:43;;;;;;;11.93;6.93;;;;;;;4.33;100.00;100618.22;2010519;29;20390;-61
2022/02/15 03:37:44;;;;;;;16.53;7.67;;;;;;;4.32;100.00;100619.09;2010476;29;20282;-61
2022/02/15 03:38:44;;;;;;;12.80;7.67;;;;;;;4.31;100.00;100625.13;2010407;29;20147;-62
2022/02/15 03:39:44;;;;;;;9.50;6.97;;;;;;;4.31;100.00;100617.38;2010466;29;20037;-61
2022/02/15 03:43:23;;;;;;;10.75;6.97;;;;;;;4.31;100.00;100624.28;2010423;29;20041;-61
2022/02/15 03:44:23;;;;;;;11.00;7.77;;;;;;;4.29;100.00;100626.91;2010386;29;20429;-62
2022/02/15 03:45:24;;;;;;;13.88;7.15;;;;;;;4.29;100.00;100624.31;2010423;29;20347;-61
2022/02/15 03:46:24;;;;;;;10.73;7.13;;;;;;;4.30;100.00;100638.94;2010316;29;20045;-61
2022/02/15 03:47:24;;;;;;;12.80;7.67;;;;;;;4.31;100.00;100640.63;2010246;29;20041;-61
2022/02/15 03:48:24;;;;;;;11.33;7.40;;;;;;;4.32;100.00;100632.03;2010316;29;20034;-60
2022/02/15 03:49:25;;;;;;;11.90;7.73;;;;;;;4.33;100.00;100638.88;2009654;29;20028;-61
2022/02/15 03:50:25;;;;;;;12.30;7.77;;;;;;;4.35;100.00;100637.09;2009802;29;20510;-61
2022/02/15 03:51:25;;;;;;;14.10;7.73;;;;;;;4.36;100.00;100640.53;2017324;29;20028;-61
2022/02/15 03:52:26;;;;;;;12.90;7.57;;;;;;;4.36;100.00;100641.41;2017507;29;20025;-61
2022/02/15 03:53:26;;;;;;;9.03;7.00;;;;;;;4.37;100.00;100650.00;2010366;29;20120;-61
2022/02/15 03:54:26;;;;;;;13.33;8.63;;;;;;;4.36;100.00;100641.41;2010407;29;20069;-61
2022/02/15 03:55:28;;;;;;;11.17;7.03;;;;;;;4.35;100.00;100641.44;2010238;29;20041;-60
2022/02/15 03:56:28;;;;;;;;;;;;;;;4.35;100.00;100647.44;2010683;29;20029;-61
2022/02/15 03:57:34;;;;;;;8.13;5.37;;;;;;;4.33;100.00;100648.34;2010316;29;20284;-61
2022/02/15 03:58:36;;;;;;;11.65;5.68;;;;;;;4.30;100.00;100645.81;2011509;29;20330;-61
2022/02/15 03:59:36;;;;;;;10.80;6.10;;;;;;;4.26;100.00;100655.38;2011661;29;20044;-61
2022/02/15 04:00:37;;;;;;;13.07;6.13;;;;;;;4.24;100.00;100649.38;2011777;29;20063;-62
2022/02/15 04:01:37;;;;;;;13.75;6.93;;;;;;;4.23;100.00;100661.47;2011652;29;20418;-62
2022/02/15 04:02:38;;;;;;;11.47;6.60;;;;;;;4.22;100.00;100662.34;2011712;29;20025;-61
2022/02/15 04:03:38;;;;;;;14.23;7.50;;;;;;;4.23;100.00;100660.59;2011646;29;20025;-61
2022/02/15 04:04:39;;;;;;;13.93;8.32;;;;;;;4.23;100.00;100658.00;2011672;29;20444;-61
2022/02/15 04:05:39;;;;;;;14.10;7.80;;;;;;;4.23;100.00;100658.00;2011659;29;20120;-61
2022/02/15 04:06:39;;;;;;;9.70;6.47;;;;;;;4.22;100.00;100670.09;2011681;29;20100;-61
2022/02/15 04:07:39;;;;;;;14.77;8.20;;;;;;;4.23;100.00;100668.34;2011646;29;20028;-60
2022/02/15 04:08:39;;;;;;;11.67;6.93;;;;;;;4.24;100.00;100670.91;2011697;29;20387;-60
2022/02/15 04:09:40;;;;;;;8.80;6.13;;;;;;;4.24;100.00;100668.31;2011639;29;20486;-61
2022/02/15 04:10:40;;;;;;;12.63;6.83;;;;;;;4.25;100.00;100664.84;2011609;29;20038;-61
2022/02/15 04:11:40;;;;;;;13.33;7.17;;;;;;;4.24;100.00;100659.69;2018673;29;20075;-61
2022/02/15 04:12:41;;;;;;;13.13;6.97;;;;;;;4.23;100.00;100668.34;2011016;29;20450;-61
2022/02/15 04:13:41;;;;;;;9.30;6.07;;;;;;;4.23;100.00;100670.94;2011049;29;20037;-61
2022/02/15 04:14:41;;;;;;;13.53;7.83;;;;;;;4.23;100.00;100668.34;2018666;29;20029;-61
2022/02/15 04:15:42;;;;;;;14.67;7.03;;;;;;;4.21;100.00;100670.94;2018626;29;20059;-61
2022/02/15 04:16:42;;;;;;;11.73;7.85;;;;;;;4.20;100.00;100673.56;2018698;29;20085;-61
2022/02/15 04:17:42;;;;;;;11.83;7.17;;;;;;;4.20;100.00;100676.16;2010956;29;20062;-61
2022/02/15 04:18:47;;;;;;;11.77;6.37;;;;;;;4.20;100.00;100681.31;2010883;29;20057;-61
2022/02/15 04:19:47;;;;;;;11.18;6.75;;;;;;;4.19;100.00;100682.19;2018252;29;20041;-60
2022/02/15 04:20:48;;;;;;;12.77;7.40;;;;;;;4.16;100.00;100677.09;2011583;29;20030;-61
2022/02/15 04:21:48;;;;;;;14.37;8.03;;;;;;;4.14;100.00;100673.69;2011548;29;20033;-61
2022/02/15 04:22:48;;;;;;;11.40;7.27;;;;;;;4.10;100.00;100683.22;2011492;29;20029;-60
2022/02/15 04:23:49;;;;;;;13.10;6.83;;;;;;;4.06;100.00;100682.44;2011518;29;20029;-61
2022/02/15 04:24:49;;;;;;;12.32;7.20;;;;;;;4.03;100.00;100677.31;2011514;29;20046;-60
2022/02/15 04:25:51;;;;;;;12.23;7.37;;;;;;;4.04;100.00;100679.00;2011540;29;20026;-60
2022/02/15 04:26:51;;;;;;;14.82;7.25;;;;;;;4.02;100.00;100680.78;2010882;29;20074;-59
2022/02/15 04:27:52;;;;;;;13.37;6.27;;;;;;;4.01;100.00;100684.25;2010943;29;20137;-60
2022/02/15 04:28:53;;;;;;;13.30;7.03;;;;;;;3.99;100.00;100680.81;2011532;29;20061;-60
2022/02/15 04:29:53;;;;;;;12.02;7.43;;;;;;;3.97;100.00;100690.34;2011583;29;20035;-60
2022/02/15 04:30:53;;;;;;;10.03;6.97;;;;;;;3.95;100.00;100686.94;2011529;29;20034;-62
2022/02/15 04:31:54;;;;;;;15.63;8.90;;;;;;;3.94;100.00;100688.66;2011505;29;20092;-61
2022/02/15 04:32:54;;;;;;;12.23;7.60;;;;;;;3.91;100.00;100693.88;2011541;29;20029;-61
2022/02/15 04:33:54;;;;;;;11.97;6.80;;;;;;;3.88;100.00;100693.94;2011443;29;20056;-61
2022/02/15 04:34:55;;;;;;;12.63;6.67;;;;;;;3.88;100.00;100698.22;2018455;29;20036;-60
2022/02/15 04:35:55;;;;;;;10.23;6.77;;;;;;;3.88;100.00;100703.41;2018598;29;20121;-61
2022/02/15 04:36:55;;;;;;;11.77;6.53;;;;;;;3.91;100.00;100699.03;2011432;29;20029;-61
2022/02/15 04:37:56;;;;;;;11.57;8.43;;;;;;;3.96;100.00;100706.69;2011461;29;20077;-62
2022/02/15 04:38:56;;;;;;;11.03;7.30;;;;;;;3.95;100.00;100708.44;2011362;29;20547;-61
2022/02/15 04:39:56;;;;;;;13.17;7.80;;;;;;;3.98;100.00;100710.13;2011435;29;20049;-61
2022/02/15 04:40:56;;;;;;;11.47;7.37;;;;;;;3.99;100.00;100711.81;2011397;29;20487;-61
2022/02/15 04:41:57;;;;;;;12.20;7.50;;;;;;;4.02;100.00;100711.78;2011401;29;20037;-61
2022/02/15 04:42:57;;;;;;;14.17;7.77;;;;;;;4.06;100.00;100713.41;2011443;29;20042;-61
2022/02/15 04:43:57;;;;;;;15.00;8.27;;;;;;;4.07;100.00;100709.94;2011450;29;20562;-61
2022/02/15 04:44:57;;;;;;;10.30;6.87;;;;;;;4.11;100.00;100715.94;2011390;29;20491;-61